Orleans, IN

4:18 PM EST on March 05, 2015 (GMT -0500)
B&K Mundy Farms | Change Station
CLOSE
Current Station
Personal Weather Station
Location: Mitchell, IN
Elevation: 656 ft
Nearby Weather Stations

Elev 656 ft 38.71 °N, 86.49 °W | Updated 11 minutes ago

Partly Cloudy
Partly Cloudy
25.9 °F
Feels Like 26 °F
N
1.0
Wind Variable Wind from NW
Gusts 14.0 mph

Today
High -- | Low -- °F
--% Chance of Precip.
Yesterday
High -- | Low -- °F
Precip. -- in
7:12 AM 6:42 PM
Full, 100% visible
Pressure 30.47 in
Visibility 10.0 miles
Clouds Overcast 4400 ft
Windchill 26 °F
Dew Point 9 °F
Humidity 50%
Rainfall in
Snow Depth Not available.
UV 1 out of 12
Pollen .80 out of 12
Air Quality Not available.
Flu Activity Not available.
METAR KBMG 052053Z VRB04KT 10SM OVC044 M04/M14 A3044 RMK AO2 SNB35E45 SLP318 P0000 60000 T10391144 53006

More Conditions Fewer Conditions

Pressure 30.47 in
Visibility 10.0 miles
Clouds Overcast 4400 ft
Windchill 26 °F
Dew Point 9 °F
Humidity 50%
Rainfall in
Snow Depth Not available.
UV 1 out of 12
Pollen .80 out of 12
Air Quality Not available.
Flu Activity Not available.
METAR KBMG 052053Z VRB04KT 10SM OVC044 M04/M14 A3044 RMK AO2 SNB35E45 SLP318 P0000 60000 T10391144 53006

More Conditions Fewer Conditions

10-Day Weather Forecast

Almanac

Astronomy

Mar. 05, 2015 Rise Set
Actual Time
Civil Twilight
Nautical Twilight
Astronomical Twilight
Moon
Length of Visible Light
Length of Day
Tomorrow will be .
, % of the Moon is Illuminated

Today's Extremes

State Highs State Lows

Community

WunderPhotos

Upload Photos

1,802,988 photos uploaded!

WunderBlogs® & News

Nearby

Air Quality

  Air Quality AQ Index Pollutant
Not available.

Snow Depth

Station Depth Elevation

Earthquake Activity

City Distance Mag. Time & Date
Minimum magnitude displayed is 2.5.

Coastal Water Temperatures

Place Temperature

Nearby Weather Stations